Wednesday, August 15, 2018, 11:09 AM GMT
Back to Local

CWSS, St. Stephen, N. B.

Location: , , Canada Lat: 45.217
Local Time: 11:09 AM GMT (11:09 GMT) Lon: -67.25
Time Zone: GMT Elev: 85 ft

Show me the last for .
Show Coded

Time T Td Feel RH Dir Speed Gust Alt SLP Vis Weather Sky Remarks
2018-08-15 10:00 68 66 - 93 60° 3 - - 29.82 0 None
2018-08-15 09:00 68 66 - 92 110° 2 - - 29.81 0 None
2018-08-15 08:00 67 67 - 98 90° 2 - - 29.82 0 None
2018-08-15 07:00 69 67 - 92 110° 2 - - 29.83 0 None
2018-08-15 06:00 71 68 76 91 130° 2 - - 29.84 0 None
2018-08-15 05:00 71 68 76 89 160° 1 - - 29.85 0 None
2018-08-15 04:00 71 68 76 92 200° 5 - - 29.86 0 None
2018-08-15 03:00 71 68 76 92 180° 6 - - 29.85 0 None
2018-08-15 02:00 68 65 - 91 100° 2 - - 29.86 0 None
2018-08-15 01:00 68 65 - 88 80° 3 - - 29.86 0 None
2018-08-15 00:00 69 64 - 82 110° 3 - - 29.86 0 None
2018-08-14 23:00 72 66 76 83 100° 2 - - 29.85 0 None
2018-08-14 22:00 75 67 78 76 110° 5 - - 29.86 0 None
2018-08-14 21:00 78 68 81 71 100° 5 - - 29.87 0 None
2018-08-14 20:00 77 68 81 73 110° 5 - - 29.88 0 None
2018-08-14 19:00 78 68 82 69 130° 7 - - 29.90 0 None
2018-08-14 18:00 76 68 79 75 110° 7 - - 29.91 0 None
2018-08-14 17:00 80 68 83 66 90° 5 - - 29.92 0 None
2018-08-14 16:00 76 67 79 72 140° 3 - - 29.93 0 None
2018-08-14 15:00 73 65 77 76 110° 3 - - 29.96 0 None
2018-08-14 14:00 73 65 77 75 120° 5 - - 29.97 0 None
2018-08-14 13:00 70 64 - 80 100° 3 - - 29.97 0 None
2018-08-14 12:00 68 64 - 86 120° 3 - - 29.98 0 None

Support USWX by starting your Amazon purchase here.